Time;durP1;ratioP1;P1;durP2;ratioP2;P2;SDS_P1;SDS_P2;PMS_P1;PMS_P2;Temp;Humidity;BMP_temperature;BMP_pressure;BME280_temperature;BME280_humidity;BME280_pressure;Samples;Min_cycle;Max_cycle;Signal;HPM_P1;HPM_P2
2023/01/27 00:00:48;;;;;;;0.20;0.20;;;;;;;5.46;100.00;101664.16;4941843;29;20154;-69
2023/01/27 00:03:13;;;;;;;0.45;0.45;;;;;;;5.48;100.00;101657.44;4942414;28;20097;-70
2023/01/27 00:05:39;;;;;;;0.20;0.20;;;;;;;5.67;100.00;101672.63;4929909;29;20106;-68
2023/01/27 00:08:05;;;;;;;0.30;0.30;;;;;;;5.67;100.00;101672.63;4922517;29;20113;-68
2023/01/27 00:10:30;;;;;;;0.20;0.20;;;;;;;5.70;100.00;101686.16;4912239;29;20090;-68
2023/01/27 00:15:40;;;;;;;0.28;0.28;;;;;;;5.58;100.00;101671.69;4929072;29;20497;-68
2023/01/27 00:18:06;;;;;;;0.55;0.55;;;;;;;5.72;100.00;101677.84;4951397;28;20119;-68
2023/01/27 00:26:12;;;;;;;0.47;0.47;;;;;;;5.69;100.00;101676.56;4945221;29;20433;-68
2023/01/27 00:28:40;;;;;;;0.30;0.30;;;;;;;5.71;100.00;101678.94;4938933;28;20123;-68
2023/01/27 00:33:54;;;;;;;0.30;0.30;;;;;;;5.65;100.00;101685.47;4948566;28;20065;-69
2023/01/27 00:36:21;;;;;;;0.40;0.40;;;;;;;5.61;100.00;101687.94;4917005;29;20127;-69
2023/01/27 00:38:47;;;;;;;0.40;0.40;;;;;;;5.56;100.00;101684.56;4947795;28;20032;-69
2023/01/27 00:41:20;;;;;;;0.20;0.20;;;;;;;5.67;100.00;101692.09;4950092;29;20114;-69
2023/01/27 00:43:52;;;;;;;0.20;0.20;;;;;;;5.74;100.00;101689.84;4948982;28;20032;-70
2023/01/27 00:46:20;;;;;;;0.20;0.20;;;;;;;5.73;100.00;101695.47;4949385;28;20039;-69
2023/01/27 00:48:46;;;;;;;0.32;0.32;;;;;;;5.85;100.00;101706.47;4949804;28;20057;-69
2023/01/27 00:51:12;;;;;;;0.22;0.22;;;;;;;5.79;100.00;101689.72;4933120;29;20035;-70
2023/01/27 00:53:38;;;;;;;0.52;0.40;;;;;;;5.73;100.00;101700.81;4927694;29;20105;-70
2023/01/27 00:56:04;;;;;;;0.20;0.20;;;;;;;5.69;100.00;101710.50;4933856;29;20088;-69
2023/01/27 00:58:30;;;;;;;0.70;0.70;;;;;;;5.78;100.00;101714.88;4949613;28;20027;-69
2023/01/27 01:01:00;;;;;;;0.50;0.50;;;;;;;5.91;100.00;101711.44;4929357;29;20091;-69
2023/01/27 01:03:30;;;;;;;0.50;0.50;;;;;;;5.89;100.00;101705.59;4935835;29;20039;-70
2023/01/27 01:05:57;;;;;;;1.20;0.63;;;;;;;5.88;100.00;101713.91;4931505;28;20303;-69
2023/01/27 01:08:23;;;;;;;0.95;0.50;;;;;;;5.97;100.00;101720.16;4939946;28;20515;-69
2023/01/27 01:10:48;;;;;;;0.85;0.50;;;;;;;5.95;100.00;101706.28;4933182;29;20023;-69
2023/01/27 01:13:14;;;;;;;1.35;0.50;;;;;;;5.84;100.00;101715.59;4952205;28;20027;-69
2023/01/27 01:15:40;;;;;;;0.88;0.60;;;;;;;5.87;100.00;101715.00;4929145;29;20663;-69
2023/01/27 01:18:08;;;;;;;0.65;0.65;;;;;;;5.87;100.00;101715.78;4958196;28;20392;-69
2023/01/27 01:20:39;;;;;;;0.30;0.30;;;;;;;5.80;100.00;101720.72;4943075;28;20039;-69
2023/01/27 01:23:05;;;;;;;0.30;0.30;;;;;;;5.73;100.00;101714.94;4957196;28;20032;-69
2023/01/27 01:25:31;;;;;;;0.30;0.30;;;;;;;5.78;100.00;101716.75;4933683;29;20035;-69
2023/01/27 01:27:57;;;;;;;0.40;0.40;;;;;;;5.81;100.00;101714.28;4933596;29;20055;-69
2023/01/27 01:30:25;;;;;;;0.50;0.50;;;;;;;5.72;100.00;101716.06;4955454;28;20123;-69
2023/01/27 01:32:52;;;;;;;0.20;0.20;;;;;;;5.80;100.00;101718.03;4957581;28;20034;-69
2023/01/27 01:35:18;;;;;;;0.40;0.40;;;;;;;5.75;100.00;101715.44;4928329;29;20031;-69
2023/01/27 01:37:43;;;;;;;0.20;0.20;;;;;;;5.64;100.00;101716.72;4931247;29;20111;-69
2023/01/27 01:40:13;;;;;;;0.20;0.20;;;;;;;5.66;100.00;101722.56;4947277;28;20082;-69
2023/01/27 01:42:49;;;;;;;0.50;0.28;;;;;;;5.80;100.00;101726.06;4932359;29;20445;-69
2023/01/27 01:45:43;;;;;;;0.38;0.38;;;;;;;5.77;100.00;101740.00;4946350;28;20031;-69
2023/01/27 01:48:12;;;;;;;0.20;0.20;;;;;;;5.80;100.00;101738.63;4929810;29;20047;-68
2023/01/27 01:50:41;;;;;;;0.30;0.30;;;;;;;5.92;100.00;101738.97;4945873;29;20046;-69
2023/01/27 01:53:09;;;;;;;0.30;0.30;;;;;;;5.93;100.00;101733.31;4947439;28;20083;-69
2023/01/27 01:55:56;;;;;;;0.28;0.28;;;;;;;5.97;100.00;101739.66;4941492;28;20024;-69
2023/01/27 01:58:23;;;;;;;0.40;0.40;;;;;;;5.90;100.00;101744.63;4893380;29;20040;-69
2023/01/27 02:00:49;;;;;;;0.45;0.45;;;;;;;5.88;100.00;101749.47;4907806;29;20032;-69
2023/01/27 02:03:15;;;;;;;0.15;0.15;;;;;;;5.86;100.00;101737.47;4904376;29;20849;-69
2023/01/27 02:05:43;;;;;;;0.22;0.22;;;;;;;5.75;100.00;101738.72;4874282;29;20035;-69
2023/01/27 02:08:29;;;;;;;0.40;0.40;;;;;;;5.85;100.00;101758.06;4874741;29;20037;-69
2023/01/27 02:10:55;;;;;;;0.30;0.30;;;;;;;5.77;100.00;101747.25;4880600;29;20525;-69
2023/01/27 02:13:21;;;;;;;0.30;0.30;;;;;;;5.59;100.00;101748.91;4892793;29;20028;-69
2023/01/27 02:15:47;;;;;;;0.20;0.20;;;;;;;5.65;100.00;101750.41;4876732;29;20944;-69
2023/01/27 02:18:13;;;;;;;0.73;0.73;;;;;;;5.62;100.00;101744.81;4891809;29;20043;-69
2023/01/27 02:20:43;;;;;;;0.20;0.20;;;;;;;5.73;100.00;101749.69;4893245;29;20037;-69
2023/01/27 02:23:27;;;;;;;0.20;0.20;;;;;;;5.85;100.00;101746.56;4890405;29;20049;-69
2023/01/27 02:26:12;;;;;;;0.10;0.10;;;;;;;5.75;100.00;101752.88;4891813;29;20040;-69
2023/01/27 02:28:38;;;;;;;0.20;0.20;;;;;;;5.80;100.00;101760.81;4892456;29;20056;-69
2023/01/27 02:31:03;;;;;;;0.20;0.20;;;;;;;5.86;100.00;101772.22;4892190;29;20128;-69
2023/01/27 02:33:29;;;;;;;0.25;0.25;;;;;;;5.93;100.00;101761.94;4892193;29;20072;-69
2023/01/27 02:36:02;;;;;;;0.40;0.40;;;;;;;5.85;100.00;101763.41;4916795;29;20028;-69
2023/01/27 02:38:33;;;;;;;0.35;0.35;;;;;;;5.77;100.00;101771.28;4948555;28;20036;-69
2023/01/27 02:41:04;;;;;;;;;;;;;;;5.89;100.00;101774.28;4930740;29;20035;-69
2023/01/27 02:43:30;;;;;;;0.20;0.20;;;;;;;6.01;100.00;101769.25;4947629;28;20355;-69
2023/01/27 02:45:55;;;;;;;0.22;0.20;;;;;;;5.93;100.00;101770.75;4933137;29;20054;-69
2023/01/27 02:48:21;;;;;;;0.20;0.20;;;;;;;5.75;100.00;101773.47;4928552;29;20048;-69
2023/01/27 02:50:46;;;;;;;0.20;0.20;;;;;;;5.82;100.00;101776.53;4930244;29;20027;-69
2023/01/27 02:53:12;;;;;;;0.20;0.20;;;;;;;5.70;100.00;101782.34;4950892;28;20468;-69
2023/01/27 02:55:37;;;;;;;0.20;0.20;;;;;;;5.69;100.00;101782.66;4935508;29;20027;-69
2023/01/27 02:58:03;;;;;;;0.20;0.20;;;;;;;5.83;100.00;101776.28;4935154;29;20040;-69
2023/01/27 03:00:43;;;;;;;0.20;0.20;;;;;;;5.77;100.00;101780.09;4937244;29;20066;-69
2023/01/27 03:03:08;;;;;;;0.43;0.25;;;;;;;5.76;100.00;101775.84;4950723;28;20407;-69
2023/01/27 03:05:34;;;;;;;0.20;0.20;;;;;;;5.79;100.00;101785.16;4945320;28;20011;-69
2023/01/27 03:08:02;;;;;;;0.20;0.20;;;;;;;5.69;100.00;101780.75;4932554;29;20043;-69
2023/01/27 03:10:27;;;;;;;0.22;0.22;;;;;;;5.62;100.00;101780.34;4936189;29;20086;-69
2023/01/27 03:12:53;;;;;;;0.28;0.28;;;;;;;5.61;100.00;101789.47;4931562;29;20167;-69
2023/01/27 03:18:14;;;;;;;0.30;0.30;;;;;;;5.66;100.00;101788.56;4950925;28;20035;-69
2023/01/27 03:20:46;;;;;;;0.20;0.20;;;;;;;5.88;100.00;101794.91;4934691;29;20039;-69
2023/01/27 03:23:14;;;;;;;0.32;0.32;;;;;;;5.75;100.00;101789.50;4947472;29;20035;-69
2023/01/27 03:25:47;;;;;;;0.20;0.20;;;;;;;5.83;100.00;101802.16;4950804;29;20019;-69
2023/01/27 03:28:13;;;;;;;0.20;0.20;;;;;;;5.98;100.00;101801.94;4951017;28;20038;-69
2023/01/27 03:30:44;;;;;;;0.20;0.20;;;;;;;5.94;100.00;101814.31;4932005;29;20071;-69
2023/01/27 03:33:16;;;;;;;0.30;0.30;;;;;;;5.62;100.00;101804.41;4934425;29;20040;-69
2023/01/27 03:47:00;;;;;;;0.57;0.32;;;;;;;5.60;100.00;101837.81;4933052;29;20389;-68
2023/01/27 03:49:26;;;;;;;0.20;0.20;;;;;;;5.54;100.00;101829.09;4947714;28;20039;-68
2023/01/27 03:51:51;;;;;;;0.32;0.32;;;;;;;5.56;100.00;101832.28;4934189;29;20620;-68
2023/01/27 03:54:17;;;;;;;0.20;0.20;;;;;;;5.48;100.00;101839.06;4930527;29;20111;-68
2023/01/27 03:56:43;;;;;;;0.20;0.20;;;;;;;5.56;100.00;101840.28;4935147;29;20058;-69
2023/01/27 03:59:08;;;;;;;0.68;0.45;;;;;;;5.67;100.00;101846.28;4935402;29;20492;-69
2023/01/27 04:01:33;;;;;;;0.20;0.20;;;;;;;5.60;100.00;101845.84;4933656;29;20097;-69
2023/01/27 04:06:59;;;;;;;0.20;0.20;;;;;;;5.73;100.00;101853.13;4933814;29;20071;-69
2023/01/27 04:09:35;;;;;;;0.20;0.20;;;;;;;5.77;100.00;101852.22;4930326;29;20036;-69
2023/01/27 04:12:04;;;;;;;0.20;0.20;;;;;;;5.70;100.00;101861.72;4933166;29;20203;-69
2023/01/27 04:14:30;;;;;;;0.20;0.20;;;;;;;5.73;100.00;101858.47;4926782;29;20393;-69
2023/01/27 04:16:58;;;;;;;0.20;0.20;;;;;;;5.76;100.00;101848.00;4929249;29;20040;-69
2023/01/27 04:19:25;;;;;;;0.25;0.25;;;;;;;5.73;100.00;101853.13;4935561;29;20146;-69
2023/01/27 04:21:51;;;;;;;0.10;0.10;;;;;;;5.71;100.00;101853.41;4930268;29;20477;-69
2023/01/27 04:24:21;;;;;;;0.20;0.20;;;;;;;5.70;100.00;101856.38;4925165;29;20047;-69
2023/01/27 04:26:49;;;;;;;0.52;0.30;;;;;;;5.72;100.00;101854.19;4935174;29;20075;-69
2023/01/27 04:29:14;;;;;;;0.20;0.20;;;;;;;5.61;100.00;101850.13;4948735;28;20035;-68
2023/01/27 04:31:41;;;;;;;0.20;0.20;;;;;;;5.45;100.00;101853.03;4949862;28;20482;-69
2023/01/27 04:34:07;;;;;;;0.20;0.20;;;;;;;5.43;100.00;101857.06;4934164;29;20063;-69
2023/01/27 04:36:33;;;;;;;0.20;0.20;;;;;;;5.33;100.00;101867.88;4932613;29;20028;-69
2023/01/27 04:38:59;;;;;;;0.32;0.32;;;;;;;5.50;100.00;101873.50;4933858;29;20070;-68
2023/01/27 04:41:24;;;;;;;0.20;0.20;;;;;;;5.67;100.00;101862.31;4934109;29;20032;-69
2023/01/27 04:43:50;;;;;;;0.20;0.20;;;;;;;5.44;100.00;101870.13;4933445;29;20035;-68
2023/01/27 04:46:15;;;;;;;0.20;0.20;;;;;;;5.55;100.00;101878.00;4932988;29;20042;-68
2023/01/27 04:48:40;;;;;;;0.20;0.20;;;;;;;5.67;100.00;101868.44;4931629;29;20444;-69
2023/01/27 04:51:06;;;;;;;0.15;0.15;;;;;;;5.64;100.00;101878.91;4930605;29;20090;-69
2023/01/27 04:53:31;;;;;;;0.20;0.20;;;;;;;5.61;100.00;101882.16;4930296;29;20039;-69
2023/01/27 04:56:06;;;;;;;0.20;0.20;;;;;;;5.52;100.00;101887.38;4938964;23;20040;-66
2023/01/27 04:58:32;;;;;;;0.30;0.30;;;;;;;5.41;100.00;101884.06;4925084;29;20039;-66
2023/01/27 05:00:57;;;;;;;0.30;0.30;;;;;;;5.45;100.00;101887.75;4921497;29;20069;-66
2023/01/27 05:03:23;;;;;;;0.20;0.20;;;;;;;5.56;100.00;101891.03;4933482;28;20055;-66
2023/01/27 05:05:48;;;;;;;0.13;0.13;;;;;;;5.50;100.00;101901.03;4923876;29;20646;-66
2023/01/27 05:08:14;;;;;;;0.30;0.30;;;;;;;5.40;100.00;101890.47;4918031;29;20044;-66
2023/01/27 05:10:43;;;;;;;0.20;0.20;;;;;;;5.20;100.00;101898.78;4922742;29;20031;-66
2023/01/27 05:13:08;;;;;;;0.20;0.20;;;;;;;5.26;100.00;101902.97;4931256;28;20040;-65
2023/01/27 05:15:33;;;;;;;0.52;0.30;;;;;;;5.29;100.00;101894.38;4927961;29;20040;-66
2023/01/27 05:17:59;;;;;;;0.20;0.20;;;;;;;5.44;100.00;101907.50;4924184;29;20032;-66
2023/01/27 05:20:24;;;;;;;0.20;0.20;;;;;;;5.26;100.00;101904.84;4915396;29;20048;-66
2023/01/27 05:22:50;;;;;;;0.20;0.20;;;;;;;5.26;100.00;101910.19;4921155;29;20035;-66
2023/01/27 05:25:19;;;;;;;0.20;0.20;;;;;;;5.14;100.00;101912.47;4920944;29;20035;-66
2023/01/27 05:27:44;;;;;;;0.35;0.35;;;;;;;5.21;100.00;101912.91;4931647;29;20074;-65
2023/01/27 05:30:10;;;;;;;0.20;0.20;;;;;;;5.35;100.00;101919.13;4933045;29;20067;-65
2023/01/27 05:32:36;;;;;;;0.32;0.32;;;;;;;5.38;100.00;101918.56;4931023;29;20035;-65
2023/01/27 05:35:01;;;;;;;0.20;0.20;;;;;;;5.31;100.00;101910.09;4933484;29;20691;-65
2023/01/27 05:37:27;;;;;;;0.20;0.20;;;;;;;5.34;100.00;101907.66;4930288;29;20042;-66
2023/01/27 05:39:52;;;;;;;0.20;0.20;;;;;;;5.28;100.00;101908.78;4933084;29;20031;-65
2023/01/27 05:42:17;;;;;;;0.20;0.20;;;;;;;5.32;100.00;101915.16;4932391;29;20039;-64
2023/01/27 05:44:43;;;;;;;0.55;0.20;;;;;;;5.26;100.00;101904.84;4931634;29;20899;-64
2023/01/27 05:47:09;;;;;;;0.20;0.20;;;;;;;5.25;100.00;101911.25;4944378;28;20047;-64
2023/01/27 05:49:34;;;;;;;0.20;0.20;;;;;;;5.19;100.00;101905.19;4942487;28;20065;-65
2023/01/27 05:51:59;;;;;;;0.30;0.30;;;;;;;5.28;100.00;101908.03;4934302;29;20031;-64
2023/01/27 05:54:25;;;;;;;0.30;0.30;;;;;;;5.32;100.00;101909.03;4930648;29;20034;-65
2023/01/27 05:56:50;;;;;;;0.20;0.20;;;;;;;5.37;100.00;101903.63;4931821;29;20047;-64
2023/01/27 05:59:16;;;;;;;0.45;0.45;;;;;;;5.31;100.00;101912.78;4931185;29;20044;-64
2023/01/27 06:01:42;;;;;;;0.20;0.20;;;;;;;5.35;100.00;101903.91;4929409;29;20032;-65
2023/01/27 06:04:08;;;;;;;0.20;0.20;;;;;;;5.49;100.00;101915.47;4932307;29;20035;-64
2023/01/27 06:06:34;;;;;;;0.20;0.20;;;;;;;5.50;100.00;101932.28;4936886;29;20516;-64
2023/01/27 06:09:00;;;;;;;0.20;0.20;;;;;;;5.39;100.00;101931.63;4941087;28;20154;-65
2023/01/27 06:11:26;;;;;;;0.20;0.20;;;;;;;5.35;100.00;101930.63;4919759;29;20035;-65
2023/01/27 06:13:52;;;;;;;0.20;0.20;;;;;;;5.33;100.00;101932.78;4931609;29;20043;-64
2023/01/27 06:16:20;;;;;;;0.20;0.20;;;;;;;5.50;100.00;101934.94;4932685;29;20035;-65
2023/01/27 06:18:47;;;;;;;0.20;0.20;;;;;;;5.48;100.00;101939.78;4932991;29;20040;-65
2023/01/27 06:21:14;;;;;;;0.20;0.20;;;;;;;5.39;100.00;101934.31;4924363;29;20035;-65
2023/01/27 06:23:40;;;;;;;0.20;0.20;;;;;;;5.39;100.00;101930.84;4918985;29;20040;-65
2023/01/27 06:26:15;;;;;;;0.20;0.20;;;;;;;5.32;100.00;101933.84;4925424;29;20031;-65
2023/01/27 06:28:41;;;;;;;0.20;0.20;;;;;;;5.40;100.00;101945.78;4935633;29;20383;-64
2023/01/27 06:31:12;;;;;;;0.20;0.20;;;;;;;5.52;100.00;101956.03;4934171;29;20079;-64
2023/01/27 06:33:38;;;;;;;0.30;0.30;;;;;;;5.46;100.00;101960.63;4935075;29;20040;-65
2023/01/27 06:36:09;;;;;;;0.20;0.20;;;;;;;5.40;100.00;101965.25;4920460;29;20043;-65
2023/01/27 06:38:35;;;;;;;0.20;0.20;;;;;;;5.21;100.00;101971.66;4940594;28;20039;-65
2023/01/27 06:41:21;;;;;;;0.20;0.20;;;;;;;5.24;100.00;101963.88;4945261;28;20114;-65
2023/01/27 06:43:47;;;;;;;0.57;0.30;;;;;;;5.29;100.00;101969.16;4855313;29;20060;-64
2023/01/27 06:46:13;;;;;;;1.45;0.30;;;;;;;5.24;100.00;101971.91;4849664;29;21932;-66
2023/01/27 06:48:39;;;;;;;0.20;0.20;;;;;;;5.23;100.00;101975.63;4854010;29;20066;-65
2023/01/27 06:51:05;;;;;;;0.30;0.30;;;;;;;5.19;100.00;101974.59;4856744;29;20090;-66
2023/01/27 06:53:31;;;;;;;0.20;0.20;;;;;;;5.25;100.00;101983.34;4852448;29;20037;-65
2023/01/27 06:55:58;;;;;;;0.20;0.20;;;;;;;5.31;100.00;101983.00;4853611;29;20475;-65
2023/01/27 06:58:24;;;;;;;0.20;0.20;;;;;;;5.37;100.00;101987.22;4856662;29;20051;-66
2023/01/27 07:00:50;;;;;;;0.28;0.28;;;;;;;5.46;100.00;101984.69;4857692;29;20073;-65
2023/01/27 07:03:16;;;;;;;0.30;0.30;;;;;;;5.50;100.00;101999.84;4833723;29;20399;-65
2023/01/27 07:05:42;;;;;;;0.20;0.20;;;;;;;5.43;100.00;102007.44;4858633;29;20050;-65
2023/01/27 07:08:07;;;;;;;0.20;0.20;;;;;;;5.30;100.00;101991.31;4853858;29;20642;-65
2023/01/27 07:10:33;;;;;;;0.20;0.20;;;;;;;5.45;100.00;102007.94;4851117;29;20089;-65
2023/01/27 07:13:09;;;;;;;0.20;0.20;;;;;;;5.45;100.00;102013.28;4852324;29;20171;-64
2023/01/27 07:15:35;;;;;;;0.30;0.30;;;;;;;5.34;100.00;102022.47;4853228;29;20041;-65
2023/01/27 07:18:01;;;;;;;0.50;0.50;;;;;;;5.43;100.00;102028.00;4851959;29;20074;-64
2023/01/27 07:20:27;;;;;;;0.30;0.30;;;;;;;5.33;100.00;102028.13;4883315;28;20509;-64
2023/01/27 07:22:57;;;;;;;0.13;0.13;;;;;;;5.41;100.00;102032.81;4932141;29;20041;-65
2023/01/27 07:25:23;;;;;;;0.20;0.20;;;;;;;5.63;100.00;102037.63;4933641;29;20027;-65
2023/01/27 07:27:48;;;;;;;0.20;0.20;;;;;;;5.41;100.00;102041.66;4945573;28;20023;-64
2023/01/27 07:30:14;;;;;;;0.30;0.30;;;;;;;5.30;100.00;102040.16;4934120;29;20047;-64
2023/01/27 07:32:39;;;;;;;0.10;0.10;;;;;;;5.34;100.00;102041.19;4932652;29;20119;-65
2023/01/27 07:35:05;;;;;;;0.20;0.20;;;;;;;5.37;100.00;102045.97;4929142;29;20883;-65
2023/01/27 07:37:31;;;;;;;0.20;0.20;;;;;;;5.48;100.00;102052.75;4929070;29;20076;-65
2023/01/27 07:39:56;;;;;;;0.30;0.25;;;;;;;5.50;100.00;102060.47;4933357;29;20047;-64
2023/01/27 07:42:21;;;;;;;0.40;0.40;;;;;;;5.41;100.00;102055.00;4920737;29;20171;-64
2023/01/27 07:44:48;;;;;;;0.20;0.20;;;;;;;5.56;100.00;102051.34;4927820;29;20771;-65
2023/01/27 07:47:13;;;;;;;0.20;0.20;;;;;;;5.50;100.00;102061.28;4934160;28;20032;-64
2023/01/27 07:49:39;;;;;;;0.20;0.20;;;;;;;5.42;100.00;102064.59;4935856;28;20079;-64
2023/01/27 07:52:04;;;;;;;0.22;0.22;;;;;;;5.55;100.00;102062.31;4920463;29;20420;-64
2023/01/27 07:54:30;;;;;;;0.30;0.30;;;;;;;5.58;100.00;102067.06;4921074;29;20163;-64
2023/01/27 07:56:58;;;;;;;0.22;0.22;;;;;;;5.64;100.00;102058.72;4928402;29;20050;-64
2023/01/27 07:59:23;;;;;;;0.20;0.20;;;;;;;5.60;100.00;102068.38;4931521;29;21399;-65
2023/01/27 08:01:49;;;;;;;0.20;0.20;;;;;;;5.60;100.00;102070.25;4946934;29;20039;-63
2023/01/27 08:04:14;;;;;;;0.10;0.10;;;;;;;5.52;100.00;102062.91;4929666;29;20066;-62
2023/01/27 08:06:40;;;;;;;0.20;0.20;;;;;;;5.63;100.00;102067.84;4931290;29;20540;-66
2023/01/27 08:09:05;;;;;;;0.30;0.30;;;;;;;5.75;100.00;102081.53;4928848;29;20509;-66
2023/01/27 08:11:31;;;;;;;0.20;0.20;;;;;;;5.77;100.00;102078.59;4928185;29;20039;-65
2023/01/27 08:13:56;;;;;;;0.20;0.20;;;;;;;5.74;100.00;102074.63;4933827;29;20035;-65
2023/01/27 08:16:22;;;;;;;0.30;0.30;;;;;;;5.63;100.00;102075.84;4930460;29;20031;-65
2023/01/27 08:18:47;;;;;;;0.30;0.30;;;;;;;5.80;100.00;102078.81;4930066;29;20509;-65
2023/01/27 08:21:13;;;;;;;0.20;0.20;;;;;;;5.65;100.00;102079.03;4926082;29;20441;-65
2023/01/27 08:23:38;;;;;;;0.20;0.20;;;;;;;5.70;100.00;102088.84;4946128;29;20755;-65
2023/01/27 08:26:05;;;;;;;0.20;0.20;;;;;;;5.75;100.00;102080.78;4932778;29;20020;-65
2023/01/27 08:28:33;;;;;;;0.20;0.20;;;;;;;5.73;100.00;102080.25;4929735;29;20506;-65
2023/01/27 08:31:13;;;;;;;0.20;0.20;;;;;;;5.69;100.00;102073.91;4932572;29;20483;-65
2023/01/27 08:33:39;;;;;;;0.30;0.30;;;;;;;5.73;100.00;102074.91;4930665;29;20401;-65
2023/01/27 08:36:09;;;;;;;0.30;0.30;;;;;;;5.72;100.00;102075.97;4925463;29;20067;-65
2023/01/27 08:38:36;;;;;;;0.30;0.30;;;;;;;5.74;100.00;102081.84;4932321;29;20032;-64
2023/01/27 08:41:07;;;;;;;0.60;0.60;;;;;;;5.60;100.00;102089.75;4927090;29;20054;-64
2023/01/27 08:43:35;;;;;;;0.30;0.30;;;;;;;5.71;100.00;102090.44;4921761;29;20123;-65
2023/01/27 08:46:01;;;;;;;0.20;0.20;;;;;;;5.60;100.00;102097.78;4928120;29;20084;-65
2023/01/27 08:48:27;;;;;;;0.25;0.25;;;;;;;5.50;100.00;102089.88;4925293;29;20048;-65
2023/01/27 08:50:55;;;;;;;0.52;0.52;;;;;;;5.50;100.00;102090.66;4923476;29;20035;-65
2023/01/27 08:53:21;;;;;;;0.28;0.28;;;;;;;5.61;100.00;102096.72;4931807;29;20046;-65
2023/01/27 08:55:46;;;;;;;0.40;0.40;;;;;;;5.52;100.00;102100.28;4936116;28;20032;-65
2023/01/27 08:58:12;;;;;;;0.10;0.10;;;;;;;5.49;100.00;102107.78;4946788;29;20047;-65
2023/01/27 09:00:37;;;;;;;0.30;0.30;;;;;;;5.33;100.00;102108.22;4930716;29;20092;-65
2023/01/27 09:03:03;;;;;;;0.20;0.20;;;;;;;5.32;100.00;102098.63;4932980;29;20496;-64
2023/01/27 09:05:28;;;;;;;0.28;0.28;;;;;;;5.32;100.00;102099.41;4933382;29;20028;-65
2023/01/27 09:07:54;;;;;;;0.20;0.20;;;;;;;5.25;100.00;102111.50;4927162;29;20048;-65
2023/01/27 09:10:21;;;;;;;0.20;0.20;;;;;;;5.16;100.00;102115.88;4925201;29;20036;-66
2023/01/27 09:12:47;;;;;;;0.20;0.20;;;;;;;5.27;100.00;102112.03;4932594;29;20050;-65
2023/01/27 09:15:14;;;;;;;0.20;0.20;;;;;;;5.06;100.00;102119.44;4928725;29;20036;-65
2023/01/27 09:17:40;;;;;;;0.28;0.28;;;;;;;5.14;100.00;102120.72;4932772;29;20031;-65
2023/01/27 09:20:06;;;;;;;0.20;0.20;;;;;;;5.09;100.00;102129.56;4932008;29;20527;-65
2023/01/27 09:22:31;;;;;;;0.25;0.25;;;;;;;5.06;100.00;102122.13;4930681;29;20043;-65
2023/01/27 09:24:57;;;;;;;0.20;0.20;;;;;;;5.11;100.00;102126.63;4932951;29;20035;-65
2023/01/27 09:27:22;;;;;;;0.20;0.20;;;;;;;5.14;100.00;102132.19;4923615;29;20038;-65
2023/01/27 09:29:47;;;;;;;0.20;0.20;;;;;;;5.23;100.00;102132.34;4927752;29;20500;-65
2023/01/27 09:32:13;;;;;;;0.30;0.30;;;;;;;5.39;100.00;102120.44;4918619;29;20035;-64
2023/01/27 09:34:39;;;;;;;0.20;0.20;;;;;;;5.41;100.00;102135.13;4929846;29;20035;-65
2023/01/27 09:37:13;;;;;;;0.20;0.20;;;;;;;5.44;100.00;102142.56;4929524;29;20048;-65
2023/01/27 09:40:02;;;;;;;0.22;0.22;;;;;;;5.51;100.00;102142.22;4933044;29;20487;-65
2023/01/27 09:42:40;;;;;;;0.30;0.30;;;;;;;5.49;100.00;102136.38;4931590;29;20035;-65
2023/01/27 09:45:35;;;;;;;0.20;0.20;;;;;;;5.60;100.00;102151.22;4921768;29;20036;-65
2023/01/27 09:48:06;;;;;;;0.30;0.30;;;;;;;5.59;100.00;102146.16;4930757;29;20063;-65
2023/01/27 09:50:51;;;;;;;0.20;0.20;;;;;;;5.72;100.00;102142.78;4938554;28;20040;-65
2023/01/27 09:53:25;;;;;;;0.20;0.20;;;;;;;5.80;100.00;102144.84;4922354;29;20043;-65
2023/01/27 09:56:00;;;;;;;0.20;0.20;;;;;;;5.70;100.00;102142.28;4918844;29;20083;-65
2023/01/27 09:59:03;;;;;;;0.20;0.20;;;;;;;5.69;100.00;102143.38;4945428;28;20028;-65
2023/01/27 10:01:38;;;;;;;0.30;0.30;;;;;;;5.77;100.00;102140.06;4922106;29;20056;-65
2023/01/27 10:04:46;;;;;;;0.10;0.10;;;;;;;5.51;100.00;102131.53;4927217;29;20054;-65
2023/01/27 10:07:27;;;;;;;0.30;0.20;;;;;;;5.50;100.00;102138.75;4920629;29;20050;-64
2023/01/27 10:09:58;;;;;;;0.25;0.25;;;;;;;5.59;100.00;102148.81;4919653;29;20137;-65
2023/01/27 10:12:42;;;;;;;0.20;0.20;;;;;;;5.71;100.00;102143.88;4927690;29;20035;-65
2023/01/27 10:15:20;;;;;;;0.20;0.20;;;;;;;5.52;100.00;102143.03;4928567;29;20032;-65
2023/01/27 10:18:02;;;;;;;0.28;0.28;;;;;;;5.43;100.00;102140.19;4923749;29;20116;-65
2023/01/27 10:20:38;;;;;;;0.47;0.47;;;;;;;5.53;100.00;102131.25;4924512;29;20115;-66
2023/01/27 10:23:11;;;;;;;0.30;0.30;;;;;;;5.55;100.00;102137.13;4916748;29;20043;-65
2023/01/27 10:25:43;;;;;;;0.20;0.20;;;;;;;5.43;100.00;102140.19;4920236;29;20102;-66
2023/01/27 10:28:14;;;;;;;0.32;0.32;;;;;;;5.62;99.80;102138.38;4919453;29;20058;-65
2023/01/27 10:31:18;;;;;;;0.30;0.30;;;;;;;5.62;100.00;102133.00;4921445;29;20027;-65
2023/01/27 10:34:02;;;;;;;0.22;0.22;;;;;;;5.67;100.00;102142.84;4915264;29;20059;-65
2023/01/27 10:36:45;;;;;;;0.20;0.20;;;;;;;5.83;100.00;102138.91;4919866;29;20036;-65
2023/01/27 10:39:40;;;;;;;0.20;0.20;;;;;;;5.89;100.00;102145.81;4938481;29;20039;-65
2023/01/27 10:42:47;;;;;;;0.20;0.20;;;;;;;5.88;99.92;102146.91;4922302;29;20039;-65
2023/01/27 10:45:36;;;;;;;0.20;0.20;;;;;;;5.93;99.40;102139.63;4894280;29;20055;-66
2023/01/27 10:48:01;;;;;;;0.20;0.20;;;;;;;5.88;99.22;102141.56;4919130;29;20044;-66
2023/01/27 10:50:37;;;;;;;0.20;0.20;;;;;;;5.93;98.69;102144.16;4920396;29;20027;-66
2023/01/27 10:53:10;;;;;;;0.22;0.22;;;;;;;6.01;98.20;102135.50;4929232;29;20051;-66
2023/01/27 10:55:45;;;;;;;0.28;0.28;;;;;;;5.92;97.59;102137.25;4955626;23;20231;-55
2023/01/27 10:58:36;;;;;;;0.20;0.20;;;;;;;6.00;98.34;102134.72;4929966;29;20730;-53
2023/01/27 11:01:05;;;;;;;0.20;0.20;;;;;;;6.16;97.95;102133.44;4944925;29;20039;-50
2023/01/27 11:03:59;;;;;;;0.28;0.28;;;;;;;6.19;96.65;102129.41;4935349;28;20036;-54
2023/01/27 11:06:32;;;;;;;0.35;0.35;;;;;;;6.26;96.77;102132.50;4933047;28;20059;-56
2023/01/27 11:09:07;;;;;;;0.22;0.22;;;;;;;6.04;94.64;102119.69;4929448;28;20055;-50
2023/01/27 11:11:46;;;;;;;0.30;0.30;;;;;;;5.92;95.08;102121.22;4933613;28;20034;-52
2023/01/27 11:14:26;;;;;;;0.30;0.30;;;;;;;5.91;94.60;102127.63;4937960;28;20442;-50
2023/01/27 11:17:02;;;;;;;0.20;0.20;;;;;;;5.90;93.91;102123.38;4953276;28;20036;-51
2023/01/27 11:19:37;;;;;;;0.20;0.20;;;;;;;5.88;93.98;102130.88;4938568;28;20294;-53
2023/01/27 11:22:03;;;;;;;0.20;0.20;;;;;;;5.95;94.36;102123.28;4937345;28;20042;-52
2023/01/27 11:24:43;;;;;;;0.40;0.40;;;;;;;5.89;94.31;102117.22;4961214;28;20395;-53
2023/01/27 11:27:32;;;;;;;0.80;0.68;;;;;;;5.78;93.21;102122.94;4939385;28;20107;-55
2023/01/27 11:30:08;;;;;;;0.17;0.17;;;;;;;5.71;94.21;102122.50;4937170;28;20144;-53
2023/01/27 11:32:43;;;;;;;0.20;0.20;;;;;;;5.62;94.12;102125.00;4944692;28;20035;-57
2023/01/27 11:35:15;;;;;;;0.20;0.20;;;;;;;5.56;94.25;102120.00;4941576;28;20055;-55
2023/01/27 11:37:44;;;;;;;0.20;0.20;;;;;;;5.43;95.58;102124.16;4945833;28;20551;-55
2023/01/27 11:40:34;;;;;;;0.20;0.20;;;;;;;5.60;95.49;102124.50;4951109;28;20035;-57
2023/01/27 11:43:01;;;;;;;0.20;0.20;;;;;;;5.65;94.29;102124.44;4950403;28;20507;-56
2023/01/27 11:45:32;;;;;;;0.20;0.20;;;;;;;5.57;94.55;102111.72;4947287;28;20118;-57
2023/01/27 11:48:01;;;;;;;0.10;0.10;;;;;;;5.61;94.95;102114.59;4949985;28;20039;-48
2023/01/27 11:50:32;;;;;;;0.20;0.20;;;;;;;5.54;94.31;102117.59;4943901;28;20027;-57
2023/01/27 11:53:28;;;;;;;0.47;0.47;;;;;;;5.58;95.27;102113.28;4950773;28;20050;-57
2023/01/27 11:55:59;;;;;;;0.20;0.20;;;;;;;5.63;95.56;102109.78;4948672;28;20032;-54
2023/01/27 11:58:30;;;;;;;0.30;0.30;;;;;;;5.65;95.04;102116.44;4948482;28;20046;-52
2023/01/27 12:00:59;;;;;;;0.30;0.30;;;;;;;5.52;95.47;102116.31;4952375;28;20167;-54
2023/01/27 12:03:55;;;;;;;0.20;0.20;;;;;;;5.34;96.42;102102.59;4959206;28;20035;-55
2023/01/27 12:06:50;;;;;;;0.17;0.17;;;;;;;5.70;96.16;102102.19;4934472;28;20036;-50